sensor_id;sensor_type;location;lat;lon;timestamp;temperature;humidity
12971;DHT22;6550;48.650;8.774;2022-12-20T00:01:49;2.30;99.90
12971;DHT22;6550;48.650;8.774;2022-12-20T00:04:16;2.20;99.90
12971;DHT22;6550;48.650;8.774;2022-12-20T00:06:42;2.20;99.90
12971;DHT22;6550;48.650;8.774;2022-12-20T00:09:11;2.20;99.90
12971;DHT22;6550;48.650;8.774;2022-12-20T00:11:39;2.20;99.90
12971;DHT22;6550;48.650;8.774;2022-12-20T00:14:09;2.20;99.90
12971;DHT22;6550;48.650;8.774;2022-12-20T00:16:36;2.20;99.90
12971;DHT22;6550;48.650;8.774;2022-12-20T00:19:05;2.20;99.90
12971;DHT22;6550;48.650;8.774;2022-12-20T00:21:35;2.30;99.90
12971;DHT22;6550;48.650;8.774;2022-12-20T00:24:02;2.20;99.90
12971;DHT22;6550;48.650;8.774;2022-12-20T00:26:32;2.20;99.90
12971;DHT22;6550;48.650;8.774;2022-12-20T00:28:59;2.30;99.90
12971;DHT22;6550;48.650;8.774;2022-12-20T00:31:28;2.30;99.90
12971;DHT22;6550;48.650;8.774;2022-12-20T00:33:56;2.30;99.90
12971;DHT22;6550;48.650;8.774;2022-12-20T00:36:25;2.30;99.90
12971;DHT22;6550;48.650;8.774;2022-12-20T00:38:56;2.30;99.90
12971;DHT22;6550;48.650;8.774;2022-12-20T00:41:26;2.30;99.90
12971;DHT22;6550;48.650;8.774;2022-12-20T00:43:54;2.30;99.90
12971;DHT22;6550;48.650;8.774;2022-12-20T00:46:21;2.30;99.90
12971;DHT22;6550;48.650;8.774;2022-12-20T00:48:49;2.30;99.90
12971;DHT22;6550;48.650;8.774;2022-12-20T00:51:21;2.30;99.90
12971;DHT22;6550;48.650;8.774;2022-12-20T00:53:50;2.30;99.90
12971;DHT22;6550;48.650;8.774;2022-12-20T00:56:19;2.30;99.90
12971;DHT22;6550;48.650;8.774;2022-12-20T00:58:47;2.30;99.90
12971;DHT22;6550;48.650;8.774;2022-12-20T01:01:25;2.30;99.90
12971;DHT22;6550;48.650;8.774;2022-12-20T01:03:58;3.90;99.90
12971;DHT22;6550;48.650;8.774;2022-12-20T01:06:26;2.30;99.90
12971;DHT22;6550;48.650;8.774;2022-12-20T01:08:53;2.30;99.90
12971;DHT22;6550;48.650;8.774;2022-12-20T01:11:24;2.30;99.90
12971;DHT22;6550;48.650;8.774;2022-12-20T01:13:56;2.30;99.90
12971;DHT22;6550;48.650;8.774;2022-12-20T01:16:27;2.30;99.90
12971;DHT22;6550;48.650;8.774;2022-12-20T01:18:58;2.30;99.90
12971;DHT22;6550;48.650;8.774;2022-12-20T01:21:26;2.30;99.90
12971;DHT22;6550;48.650;8.774;2022-12-20T01:23:54;2.30;99.90
12971;DHT22;6550;48.650;8.774;2022-12-20T01:26:24;2.30;99.90
12971;DHT22;6550;48.650;8.774;2022-12-20T01:28:54;2.30;99.90
12971;DHT22;6550;48.650;8.774;2022-12-20T01:31:24;2.30;99.90
12971;DHT22;6550;48.650;8.774;2022-12-20T01:33:54;2.30;99.90
12971;DHT22;6550;48.650;8.774;2022-12-20T01:36:23;2.30;99.90
12971;DHT22;6550;48.650;8.774;2022-12-20T01:38:58;2.30;99.90
12971;DHT22;6550;48.650;8.774;2022-12-20T01:41:26;2.30;99.90
12971;DHT22;6550;48.650;8.774;2022-12-20T01:46:23;2.30;99.90
12971;DHT22;6550;48.650;8.774;2022-12-20T01:51:24;2.30;99.90
12971;DHT22;6550;48.650;8.774;2022-12-20T01:54:02;2.30;99.90
12971;DHT22;6550;48.650;8.774;2022-12-20T01:56:33;2.40;99.90
12971;DHT22;6550;48.650;8.774;2022-12-20T01:59:00;2.30;99.90
12971;DHT22;6550;48.650;8.774;2022-12-20T02:01:30;2.30;99.90
12971;DHT22;6550;48.650;8.774;2022-12-20T02:03:57;2.30;99.90
12971;DHT22;6550;48.650;8.774;2022-12-20T02:06:28;2.30;99.90
12971;DHT22;6550;48.650;8.774;2022-12-20T02:08:59;2.30;99.90
12971;DHT22;6550;48.650;8.774;2022-12-20T02:17:38;2.30;99.90
12971;DHT22;6550;48.650;8.774;2022-12-20T02:20:29;2.30;99.90
12971;DHT22;6550;48.650;8.774;2022-12-20T02:23:15;2.30;99.90
12971;DHT22;6550;48.650;8.774;2022-12-20T02:31:12;2.40;99.90
12971;DHT22;6550;48.650;8.774;2022-12-20T02:33:45;2.40;99.90
12971;DHT22;6550;48.650;8.774;2022-12-20T02:36:15;2.30;99.90
12971;DHT22;6550;48.650;8.774;2022-12-20T02:38:42;2.30;99.90
12971;DHT22;6550;48.650;8.774;2022-12-20T02:41:23;2.40;99.90
12971;DHT22;6550;48.650;8.774;2022-12-20T02:43:59;2.30;99.90
12971;DHT22;6550;48.650;8.774;2022-12-20T02:46:47;2.30;99.90
12971;DHT22;6550;48.650;8.774;2022-12-20T02:49:19;2.30;99.90
12971;DHT22;6550;48.650;8.774;2022-12-20T02:51:49;2.30;99.90
12971;DHT22;6550;48.650;8.774;2022-12-20T02:54:18;2.30;99.90
12971;DHT22;6550;48.650;8.774;2022-12-20T02:57:19;2.40;99.90
12971;DHT22;6550;48.650;8.774;2022-12-20T03:00:02;2.30;99.90
12971;DHT22;6550;48.650;8.774;2022-12-20T03:02:29;2.40;99.90
12971;DHT22;6550;48.650;8.774;2022-12-20T03:05:18;2.40;99.90
12971;DHT22;6550;48.650;8.774;2022-12-20T03:07:49;2.40;99.90
12971;DHT22;6550;48.650;8.774;2022-12-20T03:10:18;2.40;99.90
12971;DHT22;6550;48.650;8.774;2022-12-20T03:12:50;2.40;99.90
12971;DHT22;6550;48.650;8.774;2022-12-20T03:15:17;2.40;99.90
12971;DHT22;6550;48.650;8.774;2022-12-20T03:17:44;2.40;99.90
12971;DHT22;6550;48.650;8.774;2022-12-20T03:20:11;2.40;99.90
12971;DHT22;6550;48.650;8.774;2022-12-20T03:22:37;2.40;99.90
12971;DHT22;6550;48.650;8.774;2022-12-20T03:25:07;2.40;99.90
12971;DHT22;6550;48.650;8.774;2022-12-20T03:27:36;2.40;99.90
12971;DHT22;6550;48.650;8.774;2022-12-20T03:30:05;2.40;99.90
12971;DHT22;6550;48.650;8.774;2022-12-20T03:32:32;2.40;99.90
12971;DHT22;6550;48.650;8.774;2022-12-20T03:34:59;2.30;99.90
12971;DHT22;6550;48.650;8.774;2022-12-20T03:37:25;2.40;99.90
12971;DHT22;6550;48.650;8.774;2022-12-20T03:39:59;2.40;99.90
12971;DHT22;6550;48.650;8.774;2022-12-20T03:42:26;2.40;99.90
12971;DHT22;6550;48.650;8.774;2022-12-20T03:44:53;2.40;99.90
12971;DHT22;6550;48.650;8.774;2022-12-20T03:47:22;2.40;99.90
12971;DHT22;6550;48.650;8.774;2022-12-20T03:49:49;2.40;99.90
12971;DHT22;6550;48.650;8.774;2022-12-20T03:52:19;2.40;99.90
12971;DHT22;6550;48.650;8.774;2022-12-20T03:54:48;2.40;99.90
12971;DHT22;6550;48.650;8.774;2022-12-20T03:57:15;2.40;99.90
12971;DHT22;6550;48.650;8.774;2022-12-20T03:59:42;2.40;99.90
12971;DHT22;6550;48.650;8.774;2022-12-20T04:02:08;2.40;99.90
12971;DHT22;6550;48.650;8.774;2022-12-20T04:04:36;2.40;99.90
12971;DHT22;6550;48.650;8.774;2022-12-20T04:07:02;2.40;99.90
12971;DHT22;6550;48.650;8.774;2022-12-20T04:09:31;2.40;99.90
12971;DHT22;6550;48.650;8.774;2022-12-20T04:11:59;2.40;99.90
12971;DHT22;6550;48.650;8.774;2022-12-20T04:14:26;2.40;99.90
12971;DHT22;6550;48.650;8.774;2022-12-20T04:16:52;2.40;99.90
12971;DHT22;6550;48.650;8.774;2022-12-20T04:19:19;2.40;99.90
12971;DHT22;6550;48.650;8.774;2022-12-20T04:21:46;2.40;99.90
12971;DHT22;6550;48.650;8.774;2022-12-20T04:24:15;2.40;99.90
12971;DHT22;6550;48.650;8.774;2022-12-20T04:26:41;2.40;99.90
12971;DHT22;6550;48.650;8.774;2022-12-20T04:29:10;2.40;99.90
12971;DHT22;6550;48.650;8.774;2022-12-20T04:31:37;2.40;99.90
12971;DHT22;6550;48.650;8.774;2022-12-20T04:34:04;2.40;99.90
12971;DHT22;6550;48.650;8.774;2022-12-20T04:36:35;2.40;99.90
12971;DHT22;6550;48.650;8.774;2022-12-20T04:39:04;2.40;99.90
12971;DHT22;6550;48.650;8.774;2022-12-20T04:41:31;2.40;99.90
12971;DHT22;6550;48.650;8.774;2022-12-20T04:43:58;2.40;99.90
12971;DHT22;6550;48.650;8.774;2022-12-20T04:46:27;2.40;99.90
12971;DHT22;6550;48.650;8.774;2022-12-20T04:48:54;2.40;99.90
12971;DHT22;6550;48.650;8.774;2022-12-20T04:51:27;2.40;99.90
12971;DHT22;6550;48.650;8.774;2022-12-20T04:53:57;2.40;99.90
12971;DHT22;6550;48.650;8.774;2022-12-20T04:56:26;2.40;99.90
12971;DHT22;6550;48.650;8.774;2022-12-20T04:58:57;2.40;99.90
12971;DHT22;6550;48.650;8.774;2022-12-20T05:01:27;2.40;99.90
12971;DHT22;6550;48.650;8.774;2022-12-20T05:03:57;2.40;99.90
12971;DHT22;6550;48.650;8.774;2022-12-20T05:06:27;2.40;99.90
12971;DHT22;6550;48.650;8.774;2022-12-20T05:08:56;2.40;99.90
12971;DHT22;6550;48.650;8.774;2022-12-20T05:11:22;2.40;99.90
12971;DHT22;6550;48.650;8.774;2022-12-20T05:13:49;2.40;99.90
12971;DHT22;6550;48.650;8.774;2022-12-20T05:16:16;2.40;99.90
12971;DHT22;6550;48.650;8.774;2022-12-20T05:18:45;2.40;99.90
12971;DHT22;6550;48.650;8.774;2022-12-20T05:21:18;2.40;99.90
12971;DHT22;6550;48.650;8.774;2022-12-20T05:24:03;2.40;99.90
12971;DHT22;6550;48.650;8.774;2022-12-20T05:26:49;2.40;99.90
12971;DHT22;6550;48.650;8.774;2022-12-20T05:29:15;2.40;99.90
12971;DHT22;6550;48.650;8.774;2022-12-20T05:31:44;2.50;99.90
12971;DHT22;6550;48.650;8.774;2022-12-20T05:34:11;2.50;99.90
12971;DHT22;6550;48.650;8.774;2022-12-20T05:36:40;2.50;99.90
12971;DHT22;6550;48.650;8.774;2022-12-20T05:39:09;2.50;99.90
12971;DHT22;6550;48.650;8.774;2022-12-20T05:41:41;2.50;99.90
12971;DHT22;6550;48.650;8.774;2022-12-20T05:44:08;2.50;99.90
12971;DHT22;6550;48.650;8.774;2022-12-20T05:46:35;2.50;99.90
12971;DHT22;6550;48.650;8.774;2022-12-20T05:49:02;2.50;99.90
12971;DHT22;6550;48.650;8.774;2022-12-20T05:51:28;2.50;99.90
12971;DHT22;6550;48.650;8.774;2022-12-20T05:53:55;2.50;99.90
12971;DHT22;6550;48.650;8.774;2022-12-20T05:56:24;2.50;99.90
12971;DHT22;6550;48.650;8.774;2022-12-20T05:58:51;3.60;99.90
12971;DHT22;6550;48.650;8.774;2022-12-20T06:01:17;2.50;99.90
12971;DHT22;6550;48.650;8.774;2022-12-20T06:03:47;2.50;99.90
12971;DHT22;6550;48.650;8.774;2022-12-20T06:06:16;2.40;99.90
12971;DHT22;6550;48.650;8.774;2022-12-20T06:08:43;2.50;99.90
12971;DHT22;6550;48.650;8.774;2022-12-20T06:11:13;2.50;99.90
12971;DHT22;6550;48.650;8.774;2022-12-20T06:13:40;2.50;99.90
12971;DHT22;6550;48.650;8.774;2022-12-20T06:16:09;2.50;99.90
12971;DHT22;6550;48.650;8.774;2022-12-20T06:18:36;2.50;99.90
12971;DHT22;6550;48.650;8.774;2022-12-20T06:21:02;2.50;99.90
12971;DHT22;6550;48.650;8.774;2022-12-20T06:23:29;2.50;99.90
12971;DHT22;6550;48.650;8.774;2022-12-20T06:25:59;2.50;99.90
12971;DHT22;6550;48.650;8.774;2022-12-20T06:28:26;2.50;99.90
12971;DHT22;6550;48.650;8.774;2022-12-20T06:30:54;2.50;99.90
12971;DHT22;6550;48.650;8.774;2022-12-20T06:33:23;2.50;99.90
12971;DHT22;6550;48.650;8.774;2022-12-20T06:35:53;2.50;99.90
12971;DHT22;6550;48.650;8.774;2022-12-20T06:38:20;2.50;99.90
12971;DHT22;6550;48.650;8.774;2022-12-20T06:40:49;2.50;99.90
12971;DHT22;6550;48.650;8.774;2022-12-20T06:43:18;2.50;99.90
12971;DHT22;6550;48.650;8.774;2022-12-20T06:45:45;2.50;99.90
12971;DHT22;6550;48.650;8.774;2022-12-20T06:48:12;2.50;99.90
12971;DHT22;6550;48.650;8.774;2022-12-20T06:50:38;2.50;99.90
12971;DHT22;6550;48.650;8.774;2022-12-20T06:53:06;2.50;99.90
12971;DHT22;6550;48.650;8.774;2022-12-20T06:55:32;2.50;99.90
12971;DHT22;6550;48.650;8.774;2022-12-20T06:58:00;4.50;99.90
12971;DHT22;6550;48.650;8.774;2022-12-20T07:00:29;2.50;99.90
12971;DHT22;6550;48.650;8.774;2022-12-20T07:02:55;2.50;99.90
12971;DHT22;6550;48.650;8.774;2022-12-20T07:05:22;2.50;99.90
12971;DHT22;6550;48.650;8.774;2022-12-20T07:07:49;2.50;99.90
12971;DHT22;6550;48.650;8.774;2022-12-20T07:10:19;2.50;99.90
12971;DHT22;6550;48.650;8.774;2022-12-20T07:12:48;2.50;99.90
12971;DHT22;6550;48.650;8.774;2022-12-20T07:15:17;2.50;99.90
12971;DHT22;6550;48.650;8.774;2022-12-20T07:17:44;2.60;99.90
12971;DHT22;6550;48.650;8.774;2022-12-20T07:20:13;2.50;99.90
12971;DHT22;6550;48.650;8.774;2022-12-20T07:22:43;2.50;99.90
12971;DHT22;6550;48.650;8.774;2022-12-20T07:25:10;2.50;99.90
12971;DHT22;6550;48.650;8.774;2022-12-20T07:27:36;2.60;99.90
12971;DHT22;6550;48.650;8.774;2022-12-20T07:30:06;2.60;99.90
12971;DHT22;6550;48.650;8.774;2022-12-20T07:32:33;2.60;99.90
12971;DHT22;6550;48.650;8.774;2022-12-20T07:35:00;2.60;99.90
12971;DHT22;6550;48.650;8.774;2022-12-20T07:37:30;2.60;99.90
12971;DHT22;6550;48.650;8.774;2022-12-20T07:39:56;2.60;99.90
12971;DHT22;6550;48.650;8.774;2022-12-20T07:42:25;2.60;99.90
12971;DHT22;6550;48.650;8.774;2022-12-20T07:45:03;2.60;99.90
12971;DHT22;6550;48.650;8.774;2022-12-20T07:47:30;2.60;99.90
12971;DHT22;6550;48.650;8.774;2022-12-20T07:50:01;2.60;99.90
12971;DHT22;6550;48.650;8.774;2022-12-20T07:52:32;2.60;99.90
12971;DHT22;6550;48.650;8.774;2022-12-20T07:55:01;2.60;99.90
12971;DHT22;6550;48.650;8.774;2022-12-20T07:57:44;2.70;99.90
12971;DHT22;6550;48.650;8.774;2022-12-20T08:00:15;2.70;99.90
12971;DHT22;6550;48.650;8.774;2022-12-20T08:05:28;2.70;99.90
12971;DHT22;6550;48.650;8.774;2022-12-20T08:07:57;2.80;99.90
12971;DHT22;6550;48.650;8.774;2022-12-20T08:10:28;2.80;99.90
12971;DHT22;6550;48.650;8.774;2022-12-20T08:12:56;2.80;99.90
12971;DHT22;6550;48.650;8.774;2022-12-20T08:15:24;2.80;99.90
12971;DHT22;6550;48.650;8.774;2022-12-20T08:17:51;2.80;99.90
12971;DHT22;6550;48.650;8.774;2022-12-20T08:20:18;2.90;99.90
12971;DHT22;6550;48.650;8.774;2022-12-20T08:22:45;2.90;99.90
12971;DHT22;6550;48.650;8.774;2022-12-20T08:25:14;2.90;99.90
12971;DHT22;6550;48.650;8.774;2022-12-20T08:27:41;2.90;99.90
12971;DHT22;6550;48.650;8.774;2022-12-20T08:30:10;2.90;99.90
12971;DHT22;6550;48.650;8.774;2022-12-20T08:32:38;2.90;99.90
12971;DHT22;6550;48.650;8.774;2022-12-20T08:35:05;3.00;99.90
12971;DHT22;6550;48.650;8.774;2022-12-20T08:37:32;3.00;99.90
12971;DHT22;6550;48.650;8.774;2022-12-20T08:40:01;3.00;99.90
12971;DHT22;6550;48.650;8.774;2022-12-20T08:42:28;3.00;99.90
12971;DHT22;6550;48.650;8.774;2022-12-20T08:44:55;3.10;99.90
12971;DHT22;6550;48.650;8.774;2022-12-20T08:47:22;3.10;99.90
12971;DHT22;6550;48.650;8.774;2022-12-20T08:49:51;3.10;99.90
12971;DHT22;6550;48.650;8.774;2022-12-20T08:52:18;3.20;99.90
12971;DHT22;6550;48.650;8.774;2022-12-20T08:54:47;3.10;99.90
12971;DHT22;6550;48.650;8.774;2022-12-20T08:57:18;3.20;99.90
12971;DHT22;6550;48.650;8.774;2022-12-20T08:59:45;3.20;99.90
12971;DHT22;6550;48.650;8.774;2022-12-20T09:02:12;3.30;99.90
12971;DHT22;6550;48.650;8.774;2022-12-20T09:04:41;3.30;99.90
12971;DHT22;6550;48.650;8.774;2022-12-20T09:07:09;3.30;99.90
12971;DHT22;6550;48.650;8.774;2022-12-20T09:09:39;3.30;99.90
12971;DHT22;6550;48.650;8.774;2022-12-20T09:12:08;3.30;99.90
12971;DHT22;6550;48.650;8.774;2022-12-20T09:14:34;3.30;99.90
12971;DHT22;6550;48.650;8.774;2022-12-20T09:17:01;3.40;99.90
12971;DHT22;6550;48.650;8.774;2022-12-20T09:19:30;3.40;99.90
12971;DHT22;6550;48.650;8.774;2022-12-20T09:21:57;3.50;99.90
12971;DHT22;6550;48.650;8.774;2022-12-20T09:24:23;3.50;99.90
12971;DHT22;6550;48.650;8.774;2022-12-20T09:26:50;3.60;99.90
12971;DHT22;6550;48.650;8.774;2022-12-20T09:29:22;3.70;99.90
12971;DHT22;6550;48.650;8.774;2022-12-20T09:31:59;3.80;99.90
12971;DHT22;6550;48.650;8.774;2022-12-20T09:34:26;3.90;99.90
12971;DHT22;6550;48.650;8.774;2022-12-20T09:36:53;3.90;99.90
12971;DHT22;6550;48.650;8.774;2022-12-20T09:39:22;4.00;99.90
12971;DHT22;6550;48.650;8.774;2022-12-20T09:41:51;4.10;99.90
12971;DHT22;6550;48.650;8.774;2022-12-20T09:44:28;4.10;99.90
12971;DHT22;6550;48.650;8.774;2022-12-20T09:49:40;4.20;99.90
12971;DHT22;6550;48.650;8.774;2022-12-20T10:00:27;4.30;99.90
12971;DHT22;6550;48.650;8.774;2022-12-20T10:02:55;4.30;99.90
12971;DHT22;6550;48.650;8.774;2022-12-20T10:10:56;3.90;99.90
12971;DHT22;6550;48.650;8.774;2022-12-20T10:16:06;3.90;99.90
12971;DHT22;6550;48.650;8.774;2022-12-20T10:19:04;3.70;99.90
12971;DHT22;6550;48.650;8.774;2022-12-20T10:24:18;3.70;99.90
12971;DHT22;6550;48.650;8.774;2022-12-20T10:26:48;3.90;99.90
12971;DHT22;6550;48.650;8.774;2022-12-20T10:29:17;4.00;99.90
12971;DHT22;6550;48.650;8.774;2022-12-20T10:31:44;4.00;99.90
12971;DHT22;6550;48.650;8.774;2022-12-20T10:34:11;4.10;99.90
12971;DHT22;6550;48.650;8.774;2022-12-20T10:36:40;6.70;99.90
12971;DHT22;6550;48.650;8.774;2022-12-20T10:39:08;4.10;99.90
12971;DHT22;6550;48.650;8.774;2022-12-20T10:44:18;4.20;99.90
12971;DHT22;6550;48.650;8.774;2022-12-20T10:46:48;4.20;99.90
12971;DHT22;6550;48.650;8.774;2022-12-20T10:51:54;4.30;99.90
12971;DHT22;6550;48.650;8.774;2022-12-20T10:54:33;4.30;99.90
12971;DHT22;6550;48.650;8.774;2022-12-20T10:57:22;4.30;99.90
12971;DHT22;6550;48.650;8.774;2022-12-20T11:00:03;4.40;99.90
12971;DHT22;6550;48.650;8.774;2022-12-20T11:08:00;6.10;99.90
12971;DHT22;6550;48.650;8.774;2022-12-20T11:13:46;4.50;99.90
12971;DHT22;6550;48.650;8.774;2022-12-20T11:22:37;4.60;99.90
12971;DHT22;6550;48.650;8.774;2022-12-20T11:25:24;4.60;99.90
12971;DHT22;6550;48.650;8.774;2022-12-20T11:28:09;4.60;99.90
12971;DHT22;6550;48.650;8.774;2022-12-20T11:36:14;4.60;99.90
12971;DHT22;6550;48.650;8.774;2022-12-20T11:38:57;4.60;99.90
12971;DHT22;6550;48.650;8.774;2022-12-20T11:47:23;4.70;99.90
12971;DHT22;6550;48.650;8.774;2022-12-20T11:52:38;4.80;99.90
12971;DHT22;6550;48.650;8.774;2022-12-20T11:55:27;4.80;99.90
12971;DHT22;6550;48.650;8.774;2022-12-20T12:01:02;4.80;99.90
12971;DHT22;6550;48.650;8.774;2022-12-20T12:03:33;4.80;99.90
12971;DHT22;6550;48.650;8.774;2022-12-20T12:06:10;4.80;99.90
12971;DHT22;6550;48.650;8.774;2022-12-20T12:11:28;4.70;99.90
12971;DHT22;6550;48.650;8.774;2022-12-20T12:22:43;4.80;99.90
12971;DHT22;6550;48.650;8.774;2022-12-20T12:25:14;4.90;99.90
12971;DHT22;6550;48.650;8.774;2022-12-20T12:27:42;4.90;99.90
12971;DHT22;6550;48.650;8.774;2022-12-20T12:30:14;4.90;99.90
12971;DHT22;6550;48.650;8.774;2022-12-20T12:32:52;4.90;99.90
12971;DHT22;6550;48.650;8.774;2022-12-20T12:35:50;4.90;99.90
12971;DHT22;6550;48.650;8.774;2022-12-20T12:44:56;4.90;99.90
12971;DHT22;6550;48.650;8.774;2022-12-20T12:47:37;5.00;99.90
12971;DHT22;6550;48.650;8.774;2022-12-20T12:50:22;5.00;99.90
12971;DHT22;6550;48.650;8.774;2022-12-20T12:53:40;5.00;99.90
12971;DHT22;6550;48.650;8.774;2022-12-20T12:55:53;5.00;99.90
12971;DHT22;6550;48.650;8.774;2022-12-20T13:02:18;5.10;99.90
12971;DHT22;6550;48.650;8.774;2022-12-20T13:07:27;5.10;99.90
12971;DHT22;6550;48.650;8.774;2022-12-20T13:09:57;5.10;99.90
12971;DHT22;6550;48.650;8.774;2022-12-20T13:20:42;5.00;99.90
12971;DHT22;6550;48.650;8.774;2022-12-20T13:25:47;5.00;99.90
12971;DHT22;6550;48.650;8.774;2022-12-20T13:38:54;5.10;99.90
12971;DHT22;6550;48.650;8.774;2022-12-20T13:49:26;5.00;99.90
12971;DHT22;6550;48.650;8.774;2022-12-20T13:52:19;5.00;99.90
12971;DHT22;6550;48.650;8.774;2022-12-20T13:54:49;5.00;99.90
12971;DHT22;6550;48.650;8.774;2022-12-20T13:57:32;5.00;99.90
12971;DHT22;6550;48.650;8.774;2022-12-20T14:00:21;5.10;99.90
12971;DHT22;6550;48.650;8.774;2022-12-20T14:02:48;5.10;99.90
12971;DHT22;6550;48.650;8.774;2022-12-20T14:05:30;5.10;99.90
12971;DHT22;6550;48.650;8.774;2022-12-20T14:08:04;5.10;99.90
12971;DHT22;6550;48.650;8.774;2022-12-20T14:10:34;5.10;99.90
12971;DHT22;6550;48.650;8.774;2022-12-20T14:13:02;5.10;99.90
12971;DHT22;6550;48.650;8.774;2022-12-20T14:15:33;5.10;99.90
12971;DHT22;6550;48.650;8.774;2022-12-20T14:18:25;5.10;99.90
12971;DHT22;6550;48.650;8.774;2022-12-20T14:20:57;5.00;99.90
12971;DHT22;6550;48.650;8.774;2022-12-20T14:23:44;5.00;99.90
12971;DHT22;6550;48.650;8.774;2022-12-20T14:26:18;5.10;99.90
12971;DHT22;6550;48.650;8.774;2022-12-20T14:28:58;5.00;99.90
12971;DHT22;6550;48.650;8.774;2022-12-20T14:31:40;5.00;99.90
12971;DHT22;6550;48.650;8.774;2022-12-20T14:36:44;5.00;99.90
12971;DHT22;6550;48.650;8.774;2022-12-20T14:39:23;4.90;99.90
12971;DHT22;6550;48.650;8.774;2022-12-20T14:41:56;4.90;99.90
12971;DHT22;6550;48.650;8.774;2022-12-20T14:44:25;4.90;99.90
12971;DHT22;6550;48.650;8.774;2022-12-20T14:47:00;4.90;99.90
12971;DHT22;6550;48.650;8.774;2022-12-20T14:49:34;4.80;99.90
12971;DHT22;6550;48.650;8.774;2022-12-20T14:54:32;4.80;99.90
12971;DHT22;6550;48.650;8.774;2022-12-20T14:57:25;4.80;99.90
12971;DHT22;6550;48.650;8.774;2022-12-20T15:02:50;4.70;99.90
12971;DHT22;6550;48.650;8.774;2022-12-20T15:13:20;4.60;99.90
12971;DHT22;6550;48.650;8.774;2022-12-20T15:15:47;4.60;99.90
12971;DHT22;6550;48.650;8.774;2022-12-20T15:18:18;4.60;99.90
12971;DHT22;6550;48.650;8.774;2022-12-20T15:20:48;4.60;99.90
12971;DHT22;6550;48.650;8.774;2022-12-20T15:23:20;4.60;99.90
12971;DHT22;6550;48.650;8.774;2022-12-20T15:25:48;5.50;99.90
12971;DHT22;6550;48.650;8.774;2022-12-20T15:28:20;4.50;99.90
12971;DHT22;6550;48.650;8.774;2022-12-20T15:30:48;4.50;99.90
12971;DHT22;6550;48.650;8.774;2022-12-20T15:33:24;4.50;99.90
12971;DHT22;6550;48.650;8.774;2022-12-20T15:35:52;4.50;99.90
12971;DHT22;6550;48.650;8.774;2022-12-20T15:38:24;4.40;99.90
12971;DHT22;6550;48.650;8.774;2022-12-20T15:41:25;4.40;99.90
12971;DHT22;6550;48.650;8.774;2022-12-20T15:44:00;4.40;99.90
12971;DHT22;6550;48.650;8.774;2022-12-20T15:46:28;5.20;99.90
12971;DHT22;6550;48.650;8.774;2022-12-20T15:48:58;4.40;99.90
12971;DHT22;6550;48.650;8.774;2022-12-20T15:51:34;4.40;99.90
12971;DHT22;6550;48.650;8.774;2022-12-20T15:54:28;4.40;99.90
12971;DHT22;6550;48.650;8.774;2022-12-20T15:56:56;4.40;99.90
12971;DHT22;6550;48.650;8.774;2022-12-20T15:59:26;4.30;99.90
12971;DHT22;6550;48.650;8.774;2022-12-20T16:04:52;4.30;99.90
12971;DHT22;6550;48.650;8.774;2022-12-20T16:07:24;4.30;99.90
12971;DHT22;6550;48.650;8.774;2022-12-20T16:09:53;6.20;99.90
12971;DHT22;6550;48.650;8.774;2022-12-20T16:12:24;4.30;99.90
12971;DHT22;6550;48.650;8.774;2022-12-20T16:14:51;4.20;99.90
12971;DHT22;6550;48.650;8.774;2022-12-20T16:17:18;4.20;99.90
12971;DHT22;6550;48.650;8.774;2022-12-20T16:19:45;4.20;99.90
12971;DHT22;6550;48.650;8.774;2022-12-20T16:22:17;4.20;99.90
12971;DHT22;6550;48.650;8.774;2022-12-20T16:24:48;4.20;99.90
12971;DHT22;6550;48.650;8.774;2022-12-20T16:27:14;4.20;99.90
12971;DHT22;6550;48.650;8.774;2022-12-20T16:29:41;4.20;99.90
12971;DHT22;6550;48.650;8.774;2022-12-20T16:32:14;4.20;99.90
12971;DHT22;6550;48.650;8.774;2022-12-20T16:34:42;4.20;99.90
12971;DHT22;6550;48.650;8.774;2022-12-20T16:37:09;4.20;99.90
12971;DHT22;6550;48.650;8.774;2022-12-20T16:39:37;4.20;99.90
12971;DHT22;6550;48.650;8.774;2022-12-20T16:42:15;4.20;99.90
12971;DHT22;6550;48.650;8.774;2022-12-20T16:44:42;4.20;99.90
12971;DHT22;6550;48.650;8.774;2022-12-20T16:47:11;4.20;99.90
12971;DHT22;6550;48.650;8.774;2022-12-20T16:49:38;4.10;99.90
12971;DHT22;6550;48.650;8.774;2022-12-20T16:52:16;4.10;99.90
12971;DHT22;6550;48.650;8.774;2022-12-20T16:54:43;4.10;99.90
12971;DHT22;6550;48.650;8.774;2022-12-20T16:57:12;4.10;99.90
12971;DHT22;6550;48.650;8.774;2022-12-20T16:59:39;4.10;99.90
12971;DHT22;6550;48.650;8.774;2022-12-20T17:02:29;4.10;99.90
12971;DHT22;6550;48.650;8.774;2022-12-20T17:05:00;4.20;99.90
12971;DHT22;6550;48.650;8.774;2022-12-20T17:07:27;4.20;99.90
12971;DHT22;6550;48.650;8.774;2022-12-20T17:09:54;4.20;99.90
12971;DHT22;6550;48.650;8.774;2022-12-20T17:12:35;4.10;99.90
12971;DHT22;6550;48.650;8.774;2022-12-20T17:15:02;4.20;99.90
12971;DHT22;6550;48.650;8.774;2022-12-20T17:17:30;4.10;99.90
12971;DHT22;6550;48.650;8.774;2022-12-20T17:19:56;6.20;99.90
12971;DHT22;6550;48.650;8.774;2022-12-20T17:22:26;4.10;99.90
12971;DHT22;6550;48.650;8.774;2022-12-20T17:25:18;4.10;99.90
12971;DHT22;6550;48.650;8.774;2022-12-20T17:27:48;4.10;99.90
12971;DHT22;6550;48.650;8.774;2022-12-20T17:30:15;4.10;99.90
12971;DHT22;6550;48.650;8.774;2022-12-20T17:32:44;4.10;99.90
12971;DHT22;6550;48.650;8.774;2022-12-20T17:35:26;4.10;99.90
12971;DHT22;6550;48.650;8.774;2022-12-20T17:37:53;4.10;99.90
12971;DHT22;6550;48.650;8.774;2022-12-20T17:40:28;4.10;99.90
12971;DHT22;6550;48.650;8.774;2022-12-20T17:42:55;4.10;99.90
12971;DHT22;6550;48.650;8.774;2022-12-20T17:45:31;4.10;99.90
12971;DHT22;6550;48.650;8.774;2022-12-20T17:48:00;4.10;99.90
12971;DHT22;6550;48.650;8.774;2022-12-20T17:50:29;4.10;99.90
12971;DHT22;6550;48.650;8.774;2022-12-20T17:52:56;4.10;99.90
12971;DHT22;6550;48.650;8.774;2022-12-20T17:55:29;4.00;99.90
12971;DHT22;6550;48.650;8.774;2022-12-20T17:57:56;4.00;99.90
12971;DHT22;6550;48.650;8.774;2022-12-20T18:00:28;4.00;99.90
12971;DHT22;6550;48.650;8.774;2022-12-20T18:03:08;4.00;99.90
12971;DHT22;6550;48.650;8.774;2022-12-20T18:05:55;4.00;99.90
12971;DHT22;6550;48.650;8.774;2022-12-20T18:08:31;4.00;99.90
12971;DHT22;6550;48.650;8.774;2022-12-20T18:10:58;4.00;99.90
12971;DHT22;6550;48.650;8.774;2022-12-20T18:13:25;4.00;99.90
12971;DHT22;6550;48.650;8.774;2022-12-20T18:15:52;4.00;99.90
12971;DHT22;6550;48.650;8.774;2022-12-20T18:18:18;4.00;99.90
12971;DHT22;6550;48.650;8.774;2022-12-20T18:20:47;4.00;99.90
12971;DHT22;6550;48.650;8.774;2022-12-20T18:23:16;4.00;99.90
12971;DHT22;6550;48.650;8.774;2022-12-20T18:25:48;4.00;99.90
12971;DHT22;6550;48.650;8.774;2022-12-20T18:28:17;4.00;99.90
12971;DHT22;6550;48.650;8.774;2022-12-20T18:30:44;3.90;99.90
12971;DHT22;6550;48.650;8.774;2022-12-20T18:33:10;3.90;99.90
12971;DHT22;6550;48.650;8.774;2022-12-20T18:35:40;4.00;99.90
12971;DHT22;6550;48.650;8.774;2022-12-20T18:38:06;3.90;99.90
12971;DHT22;6550;48.650;8.774;2022-12-20T18:40:38;3.90;99.90
12971;DHT22;6550;48.650;8.774;2022-12-20T18:43:13;3.90;99.90
12971;DHT22;6550;48.650;8.774;2022-12-20T18:45:41;3.90;99.90
12971;DHT22;6550;48.650;8.774;2022-12-20T18:48:11;3.90;99.90
12971;DHT22;6550;48.650;8.774;2022-12-20T18:50:38;3.90;99.90
12971;DHT22;6550;48.650;8.774;2022-12-20T18:53:05;3.90;99.90
12971;DHT22;6550;48.650;8.774;2022-12-20T18:55:35;3.90;99.90
12971;DHT22;6550;48.650;8.774;2022-12-20T18:58:05;3.90;99.90